createdAt,value
2022-09-25T00:01:58.799Z,1.33
2022-09-25T00:04:29.747Z,2.55
2022-09-25T00:06:58.602Z,2.83
2022-09-25T00:09:26.958Z,1.92
2022-09-25T00:11:55.264Z,1.58
2022-09-25T00:14:23.587Z,0.80
2022-09-25T00:16:51.896Z,0.93
2022-09-25T00:19:40.114Z,1.45
2022-09-25T00:22:09.922Z,1.38
2022-09-25T00:24:38.213Z,1.30
2022-09-25T00:27:08.628Z,1.25
2022-09-25T00:29:38.019Z,2.13
2022-09-25T00:32:06.520Z,1.88
2022-09-25T00:34:35.049Z,2.50
2022-09-25T00:37:03.294Z,0.90
2022-09-25T00:39:33.661Z,1.23
2022-09-25T00:42:01.990Z,0.90
2022-09-25T00:45:01.139Z,1.25
2022-09-25T00:48:04.032Z,0.70
2022-09-25T00:50:38.919Z,1.30
2022-09-25T00:53:12.874Z,0.95
2022-09-25T00:55:46.354Z,0.90
2022-09-25T00:58:16.703Z,1.02
2022-09-25T01:00:45.650Z,1.17
2022-09-25T01:03:15.314Z,1.05
2022-09-25T01:05:45.839Z,1.48
2022-09-25T01:08:22.707Z,1.10
2022-09-25T01:10:52.518Z,1.35
2022-09-25T01:13:21.565Z,1.38
2022-09-25T01:15:57.201Z,1.23
2022-09-25T01:18:42.033Z,1.00
2022-09-25T01:21:28.697Z,1.10
2022-09-25T01:24:22.375Z,0.90
2022-09-25T01:27:18.253Z,1.20
2022-09-25T01:29:52.650Z,1.25
2022-09-25T01:32:30.063Z,1.17
2022-09-25T01:35:04.175Z,1.38
2022-09-25T01:37:39.982Z,1.25
2022-09-25T01:40:12.451Z,1.20
2022-09-25T01:42:49.359Z,1.40
2022-09-25T01:45:23.531Z,0.80
2022-09-25T01:47:53.892Z,1.10
2022-09-25T01:50:28.930Z,1.45
2022-09-25T01:53:00.703Z,4.40
2022-09-25T01:55:36.269Z,0.90
2022-09-25T01:58:11.704Z,1.15
2022-09-25T02:00:44.584Z,1.63
2022-09-25T02:03:18.232Z,0.80
2022-09-25T02:05:50.098Z,1.55
2022-09-25T02:08:23.434Z,0.98
2022-09-25T02:10:56.101Z,1.65
2022-09-25T02:13:27.678Z,1.23
2022-09-25T02:16:00.893Z,0.80
2022-09-25T02:18:48.882Z,1.40
2022-09-25T02:21:26.432Z,2.15
2022-09-25T02:23:58.995Z,0.80
2022-09-25T02:26:30.591Z,0.98
2022-09-25T02:29:00.899Z,2.10
2022-09-25T02:31:35.888Z,1.50
2022-09-25T02:34:10.617Z,1.23
2022-09-25T02:36:43.211Z,1.38
2022-09-25T02:39:12.733Z,1.10
2022-09-25T02:41:55.702Z,1.75
2022-09-25T02:44:34.246Z,1.10
2022-09-25T02:47:15.719Z,1.42
2022-09-25T02:49:55.849Z,1.65
2022-09-25T02:52:30.904Z,1.15
2022-09-25T02:55:06.928Z,1.05
2022-09-25T02:57:42.930Z,0.90
2022-09-25T03:00:13.496Z,0.90
2022-09-25T03:02:51.408Z,3.00
2022-09-25T03:05:21.959Z,2.35
2022-09-25T03:08:08.075Z,0.80
2022-09-25T03:10:38.200Z,1.02
2022-09-25T03:13:21.009Z,2.33
2022-09-25T03:15:53.264Z,0.90
2022-09-25T03:18:23.679Z,1.58
2022-09-25T03:20:52.155Z,0.88
2022-09-25T03:23:20.948Z,1.08
2022-09-25T03:25:50.510Z,0.88
2022-09-25T03:28:19.193Z,1.33
2022-09-25T03:30:58.480Z,0.93
2022-09-25T03:33:29.813Z,1.77
2022-09-25T03:36:07.228Z,1.58
2022-09-25T03:38:35.856Z,1.58
2022-09-25T03:41:05.717Z,1.30
2022-09-25T03:43:36.578Z,2.05
2022-09-25T03:46:05.375Z,1.00
2022-09-25T03:48:35.491Z,1.17
2022-09-25T03:51:04.057Z,1.25
2022-09-25T03:53:33.554Z,0.82
2022-09-25T03:56:02.206Z,2.25
2022-09-25T03:58:30.607Z,1.48
2022-09-25T04:00:59.355Z,0.80
2022-09-25T04:03:29.181Z,2.13
2022-09-25T04:06:00.158Z,1.40
2022-09-25T04:08:29.657Z,0.80
2022-09-25T04:10:59.707Z,1.13
2022-09-25T04:13:30.145Z,1.10
2022-09-25T04:15:59.192Z,1.15
2022-09-25T04:18:31.781Z,0.90
2022-09-25T04:21:02.332Z,1.02
2022-09-25T04:23:30.873Z,4.00
2022-09-25T04:25:59.592Z,2.55
2022-09-25T04:28:29.144Z,0.90
2022-09-25T04:30:57.456Z,1.60
2022-09-25T04:33:43.209Z,1.92
2022-09-25T04:36:13.338Z,1.85
2022-09-25T04:38:41.958Z,1.05
2022-09-25T04:41:10.293Z,1.52
2022-09-25T04:43:38.614Z,1.60
2022-09-25T04:46:08.990Z,1.60
2022-09-25T04:48:37.942Z,1.25
2022-09-25T04:51:06.750Z,1.02
2022-09-25T04:53:38.606Z,1.08
2022-09-25T04:56:14.749Z,2.17
2022-09-25T04:58:46.398Z,1.10
2022-09-25T05:01:15.054Z,1.05
2022-09-25T05:03:43.975Z,1.42
2022-09-25T05:06:12.389Z,2.35
2022-09-25T05:08:42.254Z,1.30
2022-09-25T05:11:11.504Z,0.90
2022-09-25T05:13:40.069Z,1.80
2022-09-25T05:16:09.163Z,0.90
2022-09-25T05:18:37.482Z,2.05
2022-09-25T05:21:08.218Z,1.45
2022-09-25T05:23:36.559Z,1.00
2022-09-25T05:26:06.438Z,0.90
2022-09-25T05:28:35.107Z,1.13
2022-09-25T05:31:05.040Z,1.13
2022-09-25T05:33:33.687Z,0.95
2022-09-25T05:36:02.990Z,2.15
2022-09-25T05:38:34.249Z,1.02
2022-09-25T05:41:05.229Z,1.45
2022-09-25T05:43:35.950Z,0.88
2022-09-25T05:46:04.214Z,1.00
2022-09-25T05:48:32.612Z,1.35
2022-09-25T05:51:01.222Z,1.08
2022-09-25T05:53:30.706Z,1.55
2022-09-25T05:56:00.509Z,0.80
2022-09-25T05:58:30.846Z,0.90
2022-09-25T06:01:04.177Z,2.05
2022-09-25T06:03:32.506Z,2.38
2022-09-25T06:06:01.685Z,1.35
2022-09-25T06:08:31.622Z,2.00
2022-09-25T06:11:00.864Z,1.67
2022-09-25T06:13:31.269Z,1.20
2022-09-25T06:15:59.741Z,2.00
2022-09-25T06:18:29.603Z,0.90
2022-09-25T06:21:02.658Z,1.73
2022-09-25T06:23:31.776Z,1.15
2022-09-25T06:26:04.035Z,1.05
2022-09-25T06:28:33.056Z,1.40
2022-09-25T06:31:02.387Z,1.20
2022-09-25T06:33:32.440Z,1.27
2022-09-25T06:36:01.538Z,0.95
2022-09-25T06:38:30.162Z,1.83
2022-09-25T06:41:00.918Z,1.58
2022-09-25T06:43:30.175Z,2.10
2022-09-25T06:46:02.619Z,2.75
2022-09-25T06:48:32.623Z,1.38
2022-09-25T06:51:02.408Z,1.30
2022-09-25T06:53:31.023Z,2.40
2022-09-25T06:56:00.912Z,2.42
2022-09-25T06:58:30.791Z,3.05
2022-09-25T07:00:59.383Z,3.05
2022-09-25T07:03:44.938Z,3.28
2022-09-25T07:06:16.599Z,2.05
2022-09-25T07:08:45.835Z,1.80
2022-09-25T07:11:15.930Z,2.08
2022-09-25T07:13:45.081Z,1.83
2022-09-25T07:16:16.003Z,1.80
2022-09-25T07:18:45.017Z,1.70
2022-09-25T07:21:23.744Z,1.52
2022-09-25T07:23:53.826Z,4.78
2022-09-25T07:26:23.655Z,1.60
2022-09-25T07:28:56.216Z,1.77
2022-09-25T07:31:30.346Z,2.00
2022-09-25T07:34:00.564Z,1.55
2022-09-25T07:36:30.447Z,1.50
2022-09-25T07:38:58.648Z,1.83
2022-09-25T07:41:26.977Z,1.35
2022-09-25T07:44:40.179Z,1.50
2022-09-25T07:46:46.406Z,1.85
2022-09-25T07:49:15.578Z,1.95
2022-09-25T07:51:45.278Z,1.92
2022-09-25T07:54:13.637Z,1.50
2022-09-25T07:56:42.294Z,1.40
2022-09-25T07:59:10.874Z,1.98
2022-09-25T08:01:43.645Z,2.05
2022-09-25T08:04:14.021Z,1.50
2022-09-25T08:06:42.434Z,1.77
2022-09-25T08:09:13.830Z,1.75
2022-09-25T08:11:43.377Z,1.65
2022-09-25T08:14:14.434Z,1.77
2022-09-25T08:16:42.955Z,2.30
2022-09-25T08:19:12.360Z,1.30
2022-09-25T08:21:40.805Z,1.67
2022-09-25T08:24:09.416Z,2.38
2022-09-25T08:26:39.672Z,1.83
2022-09-25T08:29:09.393Z,1.50
2022-09-25T08:31:37.743Z,1.85
2022-09-25T08:34:28.466Z,1.48
2022-09-25T08:36:57.816Z,1.73
2022-09-25T08:39:26.503Z,1.50
2022-09-25T08:41:57.994Z,1.55
2022-09-25T08:44:30.573Z,1.77
2022-09-25T08:47:20.955Z,1.50
2022-09-25T08:49:58.319Z,1.50
2022-09-25T08:52:26.759Z,1.80
2022-09-25T08:54:55.771Z,1.45
2022-09-25T08:57:31.965Z,1.58
2022-09-25T09:00:07.692Z,1.40
2022-09-25T09:02:42.353Z,1.48
2022-09-25T09:05:20.751Z,1.63
2022-09-25T09:07:55.445Z,1.67
2022-09-25T09:10:33.108Z,1.77
2022-09-25T09:13:12.439Z,1.77
2022-09-25T09:15:45.013Z,2.13
2022-09-25T09:18:22.560Z,1.60
2022-09-25T09:20:53.957Z,1.63
2022-09-25T09:23:24.456Z,1.65
2022-09-25T09:26:02.074Z,2.03
2022-09-25T09:28:58.175Z,1.73
2022-09-25T09:31:33.971Z,2.10
2022-09-25T09:35:06.983Z,2.15
2022-09-25T09:37:50.089Z,1.77
2022-09-25T09:40:51.859Z,2.20
2022-09-25T09:46:40.874Z,1.98
2022-09-25T09:49:17.182Z,1.90
2022-09-25T09:51:52.040Z,2.00
2022-09-25T09:54:27.721Z,2.10
2022-09-25T09:56:58.997Z,2.38
2022-09-25T09:59:31.569Z,2.88
2022-09-25T10:02:14.325Z,2.42
2022-09-25T10:04:44.392Z,2.00
2022-09-25T10:07:16.785Z,2.38
2022-09-25T10:09:45.117Z,2.30
2022-09-25T10:12:22.000Z,3.28
2022-09-25T10:14:51.139Z,2.88
2022-09-25T10:17:23.622Z,2.65
2022-09-25T10:19:56.634Z,2.20
2022-09-25T10:22:28.317Z,2.20
2022-09-25T10:25:02.167Z,2.55
2022-09-25T10:27:33.908Z,2.17
2022-09-25T10:30:18.822Z,1.98
2022-09-25T10:32:58.496Z,1.83
2022-09-25T10:35:30.899Z,1.73
2022-09-25T10:38:02.078Z,2.08
2022-09-25T10:40:34.722Z,1.60
2022-09-25T10:43:17.061Z,2.10
2022-09-25T10:45:46.608Z,1.73
2022-09-25T10:48:51.552Z,2.92
2022-09-25T10:51:21.815Z,3.20
2022-09-25T10:53:51.465Z,3.70
2022-09-25T10:56:22.967Z,2.22
2022-09-25T10:58:56.120Z,1.98
2022-09-25T11:01:33.514Z,1.90
2022-09-25T11:04:06.994Z,1.90
2022-09-25T11:06:36.958Z,1.65
2022-09-25T11:09:10.414Z,3.53
2022-09-25T11:11:41.056Z,1.50
2022-09-25T11:14:21.109Z,2.97
2022-09-25T11:16:58.033Z,1.95
2022-09-25T11:19:30.375Z,1.38
2022-09-25T11:22:11.420Z,1.27
2022-09-25T11:24:54.880Z,2.10
2022-09-25T11:27:35.649Z,1.13
2022-09-25T11:30:07.963Z,1.55
2022-09-25T11:32:48.856Z,1.33
2022-09-25T11:35:43.599Z,1.55
2022-09-25T11:38:44.622Z,1.27
2022-09-25T11:41:23.306Z,1.80
2022-09-25T11:44:01.206Z,1.30
2022-09-25T11:46:41.211Z,1.20
2022-09-25T11:49:19.478Z,1.35
2022-09-25T11:52:16.776Z,1.33
2022-09-25T11:55:05.881Z,1.38
2022-09-25T11:57:42.614Z,1.30
2022-09-25T12:00:18.217Z,1.13
2022-09-25T12:03:11.979Z,2.08
2022-09-25T12:05:54.719Z,0.90
2022-09-25T12:08:37.923Z,1.20
2022-09-25T12:11:14.071Z,2.13
2022-09-25T12:13:49.568Z,1.10
2022-09-25T12:16:24.854Z,1.20
2022-09-25T12:19:10.994Z,1.45
2022-09-25T12:21:47.970Z,1.30
2022-09-25T12:24:32.778Z,1.25
2022-09-25T12:27:10.363Z,1.20
2022-09-25T12:30:11.859Z,1.00
2022-09-25T12:33:07.345Z,1.58
2022-09-25T12:35:44.232Z,1.33
2022-09-25T12:38:22.270Z,0.93
2022-09-25T12:40:56.804Z,1.40
2022-09-25T12:43:33.691Z,2.28
2022-09-25T12:46:09.833Z,2.10
2022-09-25T12:48:44.136Z,1.30
2022-09-25T12:51:18.634Z,1.63
2022-09-25T12:53:53.508Z,1.48
2022-09-25T12:56:27.484Z,1.20
2022-09-25T12:59:06.249Z,1.25
2022-09-25T13:01:45.551Z,1.95
2022-09-25T13:04:42.399Z,2.17
2022-09-25T13:07:18.460Z,3.00
2022-09-25T13:09:48.495Z,1.70
2022-09-25T13:12:29.340Z,2.22
2022-09-25T13:15:02.062Z,3.13
2022-09-25T13:17:32.463Z,1.65
2022-09-25T13:20:31.469Z,1.45
2022-09-25T13:23:03.881Z,2.50
2022-09-25T13:25:41.177Z,1.30
2022-09-25T13:28:19.035Z,1.58
2022-09-25T13:31:13.386Z,1.50
2022-09-25T13:33:49.511Z,1.67
2022-09-25T13:36:37.325Z,1.63
2022-09-25T13:39:25.878Z,1.40
2022-09-25T13:41:57.910Z,1.50
2022-09-25T13:45:07.889Z,1.42
2022-09-25T13:48:06.339Z,1.70
2022-09-25T13:50:41.400Z,1.20
2022-09-25T13:53:50.427Z,2.25
2022-09-25T13:56:48.528Z,1.85
2022-09-25T13:59:38.456Z,1.60
2022-09-25T14:02:44.387Z,3.67
2022-09-25T14:05:18.368Z,1.58
2022-09-25T14:07:49.342Z,1.60
2022-09-25T14:10:19.378Z,2.03
2022-09-25T14:12:49.914Z,1.80
2022-09-25T14:15:30.222Z,1.50
2022-09-25T14:18:01.830Z,2.20
2022-09-25T14:20:37.376Z,1.48
2022-09-25T14:23:12.153Z,3.33
2022-09-25T14:25:44.531Z,1.50
2022-09-25T14:28:20.939Z,1.30
2022-09-25T14:31:16.117Z,1.55
2022-09-25T14:34:27.647Z,1.40
2022-09-25T14:37:14.234Z,1.80
2022-09-25T14:39:49.665Z,1.63
2022-09-25T14:42:46.578Z,2.28
2022-09-25T14:45:32.302Z,1.40
2022-09-25T14:48:02.052Z,2.00
2022-09-25T14:50:38.519Z,2.50
2022-09-25T14:53:13.501Z,1.88
2022-09-25T14:55:47.068Z,1.92
2022-09-25T14:58:20.030Z,2.15
2022-09-25T15:00:50.595Z,1.40
2022-09-25T15:03:22.292Z,1.40
2022-09-25T15:05:52.303Z,1.40
2022-09-25T15:08:24.498Z,1.83
2022-09-25T15:11:03.412Z,1.83
2022-09-25T15:13:34.706Z,2.58
2022-09-25T15:16:21.745Z,2.33
2022-09-25T15:18:54.320Z,2.05
2022-09-25T15:21:28.408Z,1.58
2022-09-25T15:23:59.315Z,1.77
2022-09-25T15:26:29.207Z,2.28
2022-09-25T15:28:57.689Z,1.58
2022-09-25T15:31:26.538Z,1.55
2022-09-25T15:34:14.783Z,1.48
2022-09-25T15:36:44.830Z,1.52
2022-09-25T15:39:16.774Z,1.55
2022-09-25T15:41:45.734Z,3.58
2022-09-25T15:44:19.190Z,1.80
2022-09-25T15:46:49.740Z,1.70
2022-09-25T15:49:21.716Z,2.15
2022-09-25T15:51:58.280Z,2.63
2022-09-25T15:54:34.409Z,3.13
2022-09-25T15:57:06.194Z,2.72
2022-09-25T15:59:57.771Z,1.70
2022-09-25T16:02:51.237Z,1.60
2022-09-25T16:05:24.292Z,1.77
2022-09-25T16:07:56.213Z,1.83
2022-09-25T16:10:33.663Z,1.52
2022-09-25T16:13:03.224Z,1.75
2022-09-25T16:15:49.121Z,2.35
2022-09-25T16:18:42.528Z,1.88
2022-09-25T16:21:21.747Z,1.42
2022-09-25T16:23:56.727Z,1.90
2022-09-25T16:26:28.898Z,2.03
2022-09-25T16:29:03.588Z,2.00
2022-09-25T16:31:32.456Z,2.75
2022-09-25T16:34:01.297Z,2.00
2022-09-25T16:36:44.046Z,1.70
2022-09-25T16:39:22.963Z,2.30
2022-09-25T16:41:51.632Z,2.22
2022-09-25T16:44:22.338Z,2.70
2022-09-25T16:47:08.274Z,3.42
2022-09-25T16:49:36.518Z,2.47
2022-09-25T16:52:07.775Z,1.83
2022-09-25T16:54:39.229Z,2.13
2022-09-25T16:57:07.887Z,2.00
2022-09-25T16:59:36.208Z,2.55
2022-09-25T17:02:18.954Z,2.47
2022-09-25T17:04:47.353Z,1.90
2022-09-25T17:07:16.111Z,2.42
2022-09-25T17:09:45.791Z,2.60
2022-09-25T17:12:19.557Z,2.85
2022-09-25T17:14:48.401Z,4.65
2022-09-25T17:17:20.641Z,2.55
2022-09-25T17:19:49.055Z,1.92
2022-09-25T17:22:17.866Z,3.20
2022-09-25T17:24:47.607Z,2.67
2022-09-25T17:27:17.474Z,1.70
2022-09-25T17:29:48.220Z,3.10
2022-09-25T17:32:17.707Z,2.25
2022-09-25T17:34:47.498Z,2.03
2022-09-25T17:37:15.824Z,2.53
2022-09-25T17:39:44.133Z,2.33
2022-09-25T17:42:13.829Z,2.20
2022-09-25T17:44:43.808Z,2.75
2022-09-25T17:47:13.351Z,1.77
2022-09-25T17:49:42.224Z,1.80
2022-09-25T17:52:15.701Z,2.00
2022-09-25T17:54:45.710Z,2.45
2022-09-25T17:57:15.437Z,4.32
2022-09-25T17:59:44.106Z,2.33
2022-09-25T18:02:17.949Z,3.03
2022-09-25T18:04:46.514Z,6.18
2022-09-25T18:07:15.753Z,6.13
2022-09-25T18:09:44.137Z,6.70
2022-09-25T18:12:12.551Z,7.13
2022-09-25T18:14:43.193Z,7.30
2022-09-25T18:17:11.622Z,6.47
2022-09-25T18:19:57.207Z,7.45
2022-09-25T18:22:25.755Z,5.13
2022-09-25T18:24:56.940Z,6.00
2022-09-25T18:27:27.231Z,4.63
2022-09-25T18:29:57.779Z,6.18
2022-09-25T18:32:26.157Z,7.18
2022-09-25T18:34:54.514Z,8.50
2022-09-25T18:37:22.852Z,11.50
2022-09-25T18:39:51.272Z,10.75
2022-09-25T18:42:19.664Z,9.35
2022-09-25T18:44:48.410Z,9.27
2022-09-25T18:47:18.446Z,8.38
2022-09-25T18:49:46.737Z,7.55
2022-09-25T18:52:15.867Z,5.75
2022-09-25T18:54:44.236Z,4.32
2022-09-25T18:57:13.860Z,4.70
2022-09-25T18:59:42.324Z,4.85
2022-09-25T19:02:23.581Z,4.45
2022-09-25T19:04:54.824Z,4.15
2022-09-25T19:07:24.131Z,4.75
2022-09-25T19:09:52.844Z,3.70
2022-09-25T19:12:21.785Z,6.95
2022-09-25T19:14:51.375Z,9.75
2022-09-25T19:17:20.742Z,6.18
2022-09-25T19:19:50.396Z,7.63
2022-09-25T19:22:20.494Z,6.18
2022-09-25T19:24:50.876Z,4.72
2022-09-25T19:27:19.931Z,4.60
2022-09-25T19:29:49.152Z,4.88
2022-09-25T19:32:19.391Z,3.83
2022-09-25T19:34:50.264Z,3.60
2022-09-25T19:37:18.933Z,5.18
2022-09-25T19:40:04.581Z,3.65
2022-09-25T19:42:33.873Z,4.07
2022-09-25T19:45:02.248Z,4.03
2022-09-25T19:47:30.659Z,4.55
2022-09-25T19:50:00.401Z,4.57
2022-09-25T19:52:28.739Z,5.07
2022-09-25T19:54:57.222Z,6.10
2022-09-25T19:57:25.800Z,4.97
2022-09-25T19:59:54.681Z,4.28
2022-09-25T20:02:23.050Z,3.65
2022-09-25T20:04:51.432Z,3.75
2022-09-25T20:07:21.114Z,4.78
2022-09-25T20:09:49.460Z,3.60
2022-09-25T20:12:17.896Z,6.63
2022-09-25T20:14:46.377Z,4.32
2022-09-25T20:17:14.712Z,4.18
2022-09-25T20:19:43.243Z,3.80
2022-09-25T20:22:11.652Z,4.25
2022-09-25T20:24:41.628Z,5.93
2022-09-25T20:27:10.274Z,5.95
2022-09-25T20:29:40.538Z,4.22
2022-09-25T20:32:09.054Z,4.35
2022-09-25T20:34:37.357Z,4.90
2022-09-25T20:37:05.884Z,4.80
2022-09-25T20:39:34.213Z,3.83
2022-09-25T20:42:04.188Z,3.42
2022-09-25T20:44:32.588Z,3.33
2022-09-25T20:47:00.900Z,3.88
2022-09-25T20:49:29.148Z,4.55
2022-09-25T20:51:57.396Z,4.65
2022-09-25T20:54:26.810Z,3.97
2022-09-25T20:56:55.211Z,7.13
2022-09-25T20:59:25.333Z,4.82
2022-09-25T21:01:53.629Z,3.78
2022-09-25T21:04:21.930Z,3.22
2022-09-25T21:06:50.190Z,2.70
2022-09-25T21:09:21.361Z,3.35
2022-09-25T21:11:49.710Z,3.08
2022-09-25T21:14:20.219Z,3.35
2022-09-25T21:16:51.004Z,3.75
2022-09-25T21:19:21.422Z,4.05
2022-09-25T21:21:50.048Z,3.33
2022-09-25T21:24:19.905Z,3.60
2022-09-25T21:26:48.919Z,3.20
2022-09-25T21:29:18.212Z,3.58
2022-09-25T21:31:50.342Z,5.35
2022-09-25T21:34:20.925Z,3.30
2022-09-25T21:36:49.715Z,4.78
2022-09-25T21:39:20.752Z,3.13
2022-09-25T21:41:49.827Z,3.38
2022-09-25T21:44:20.473Z,4.22
2022-09-25T21:46:48.801Z,3.35
2022-09-25T21:49:18.593Z,2.78
2022-09-25T21:51:49.664Z,3.50
2022-09-25T21:54:18.352Z,3.10
2022-09-25T21:56:47.351Z,2.88
2022-09-25T21:59:16.016Z,4.25
2022-09-25T22:01:44.513Z,3.22
2022-09-25T22:04:14.759Z,3.28
2022-09-25T22:06:45.719Z,2.45
2022-09-25T22:09:17.980Z,3.00
2022-09-25T22:11:46.730Z,2.83
2022-09-25T22:14:16.493Z,3.72
2022-09-25T22:16:46.858Z,2.90
2022-09-25T22:19:18.321Z,3.08
2022-09-25T22:21:48.816Z,3.20
2022-09-25T22:24:18.553Z,5.07
2022-09-25T22:26:48.833Z,2.95
2022-09-25T22:29:17.773Z,4.22
2022-09-25T22:31:46.107Z,4.53
2022-09-25T22:34:21.199Z,3.63
2022-09-25T22:36:54.890Z,5.50
2022-09-25T22:39:26.238Z,4.95
2022-09-25T22:41:55.343Z,4.88
2022-09-25T22:44:24.053Z,8.30
2022-09-25T22:46:52.458Z,4.60
2022-09-25T22:49:20.759Z,3.95
2022-09-25T22:51:49.045Z,3.95
2022-09-25T22:54:17.757Z,3.75
2022-09-25T22:56:47.472Z,3.53
2022-09-25T22:59:18.500Z,3.90
2022-09-25T23:01:49.959Z,4.18
2022-09-25T23:04:20.717Z,3.70
2022-09-25T23:06:49.966Z,4.00
2022-09-25T23:09:21.484Z,2.83
2022-09-25T23:11:51.645Z,3.50
2022-09-25T23:14:22.576Z,2.60
2022-09-25T23:16:53.006Z,2.90
2022-09-25T23:19:22.252Z,2.60
2022-09-25T23:21:52.818Z,2.40
2022-09-25T23:24:22.732Z,2.60
2022-09-25T23:26:53.169Z,2.97
2022-09-25T23:29:23.199Z,3.10
2022-09-25T23:31:52.514Z,3.00
2022-09-25T23:34:21.222Z,2.75
2022-09-25T23:36:49.808Z,3.13
2022-09-25T23:39:20.052Z,2.33
2022-09-25T23:41:49.330Z,2.50
2022-09-25T23:44:19.166Z,2.38
2022-09-25T23:46:47.689Z,2.50
2022-09-25T23:49:16.176Z,2.88
2022-09-25T23:51:44.664Z,2.40
2022-09-25T23:54:13.037Z,2.25
2022-09-25T23:56:41.967Z,1.90
2022-09-25T23:59:12.493Z,4.10
